createdAt,value
2018-12-27T00:00:25.766Z,3.44
2018-12-27T00:02:56.304Z,3.44
2018-12-27T00:05:26.718Z,3.45
2018-12-27T00:07:57.168Z,3.42
2018-12-27T00:10:27.512Z,3.46
2018-12-27T00:12:57.862Z,3.37
2018-12-27T00:15:28.354Z,3.41
2018-12-27T00:17:58.747Z,3.44
2018-12-27T00:20:29.099Z,3.46
2018-12-27T00:22:59.741Z,3.42
2018-12-27T00:25:30.024Z,3.40
2018-12-27T00:28:00.399Z,3.46
2018-12-27T00:30:30.902Z,3.41
2018-12-27T00:33:03.259Z,3.39
2018-12-27T00:35:33.867Z,3.43
2018-12-27T00:38:04.544Z,3.34
2018-12-27T00:40:35.027Z,3.44
2018-12-27T00:43:05.434Z,3.35
2018-12-27T00:45:35.857Z,3.44
2018-12-27T00:48:06.538Z,3.36
2018-12-27T00:50:36.938Z,3.41
2018-12-27T00:53:07.639Z,3.42
2018-12-27T00:55:38.041Z,3.37
2018-12-27T00:58:08.436Z,3.44
2018-12-27T01:00:39.117Z,3.40
2018-12-27T01:03:11.254Z,3.35
2018-12-27T01:05:42.329Z,3.37
2018-12-27T01:08:12.731Z,3.46
2018-12-27T01:10:43.647Z,3.44
2018-12-27T01:13:14.391Z,3.38
2018-12-27T01:15:45.399Z,3.36
2018-12-27T01:18:16.386Z,3.39
2018-12-27T01:20:47.090Z,3.38
2018-12-27T01:23:17.503Z,3.41
2018-12-27T01:25:47.934Z,3.37
2018-12-27T01:28:18.352Z,3.43
2018-12-27T01:30:49.013Z,3.40
2018-12-27T01:33:19.422Z,3.47
2018-12-27T01:35:49.848Z,3.46
2018-12-27T01:38:20.274Z,3.41
2018-12-27T01:40:50.718Z,3.41
2018-12-27T01:43:21.463Z,3.41
2018-12-27T01:45:51.869Z,3.46
2018-12-27T01:48:22.281Z,3.50
2018-12-27T01:50:52.722Z,3.45
2018-12-27T01:53:23.144Z,3.55
2018-12-27T01:55:53.542Z,3.45
2018-12-27T01:58:23.993Z,3.53
2018-12-27T02:00:54.432Z,3.43
2018-12-27T02:03:26.599Z,3.45
2018-12-27T02:05:57.726Z,3.47
2018-12-27T02:08:28.136Z,3.43
2018-12-27T02:10:58.862Z,3.43
2018-12-27T02:13:29.297Z,3.45
2018-12-27T02:15:59.705Z,3.47
2018-12-27T02:18:30.523Z,3.50
2018-12-27T02:21:01.209Z,3.45
2018-12-27T02:23:31.610Z,3.50
2018-12-27T02:26:02.348Z,3.46
2018-12-27T02:28:32.798Z,3.50
2018-12-27T02:31:03.230Z,3.41
2018-12-27T02:33:35.294Z,3.44
2018-12-27T02:36:05.816Z,3.45
2018-12-27T02:38:36.274Z,3.44
2018-12-27T02:41:06.974Z,3.58
2018-12-27T02:43:37.425Z,3.46
2018-12-27T02:46:08.163Z,3.47
2018-12-27T02:48:38.672Z,3.42
2018-12-27T02:51:09.128Z,3.43
2018-12-27T02:53:39.522Z,3.44
2018-12-27T02:56:09.954Z,3.49
2018-12-27T02:58:40.428Z,3.50
2018-12-27T03:01:10.875Z,3.48
2018-12-27T03:03:44.067Z,3.50
2018-12-27T03:06:13.423Z,3.56
2018-12-27T03:08:43.875Z,3.52
2018-12-27T03:11:14.611Z,3.49
2018-12-27T03:13:45.605Z,3.49
2018-12-27T03:16:16.050Z,3.40
2018-12-27T03:18:46.466Z,3.38
2018-12-27T03:21:16.965Z,3.36
2018-12-27T03:23:47.363Z,3.37
2018-12-27T03:26:17.827Z,3.39
2018-12-27T03:28:48.474Z,3.32
2018-12-27T03:31:18.889Z,3.26
2018-12-27T03:33:52.787Z,3.23
2018-12-27T03:36:21.717Z,3.19
2018-12-27T03:38:53.205Z,3.20
2018-12-27T03:41:23.628Z,3.32
2018-12-27T03:43:54.055Z,3.24
2018-12-27T03:46:24.754Z,3.16
2018-12-27T03:48:55.174Z,3.15
2018-12-27T03:51:25.598Z,3.17
2018-12-27T03:53:56.270Z,3.10
2018-12-27T03:56:26.693Z,3.05
2018-12-27T03:58:57.125Z,3.21
2018-12-27T04:01:27.594Z,3.13
2018-12-27T04:04:01.548Z,3.10
2018-12-27T04:06:30.182Z,3.06
2018-12-27T04:09:00.619Z,3.03
2018-12-27T04:11:31.286Z,3.09
2018-12-27T04:14:02.286Z,3.10
2018-12-27T04:16:32.488Z,3.02
2018-12-27T04:19:03.095Z,3.00
2018-12-27T04:21:33.547Z,3.03
2018-12-27T04:24:04.860Z,3.00
2018-12-27T04:26:35.231Z,3.01
2018-12-27T04:29:05.553Z,2.97
2018-12-27T04:31:36.183Z,3.03
2018-12-27T04:34:09.652Z,3.04
2018-12-27T04:36:40.644Z,3.03
2018-12-27T04:39:11.195Z,3.03
2018-12-27T04:41:42.339Z,3.06
2018-12-27T04:44:13.202Z,3.09
2018-12-27T04:46:43.478Z,3.12
2018-12-27T04:49:13.834Z,3.12
2018-12-27T04:51:44.210Z,3.07
2018-12-27T04:54:14.715Z,3.05
2018-12-27T04:56:45.059Z,3.07
2018-12-27T04:59:15.291Z,3.03
2018-12-27T05:01:45.485Z,3.05
2018-12-27T05:04:18.257Z,3.01
2018-12-27T05:06:48.095Z,3.00
2018-12-27T05:09:18.559Z,2.99
2018-12-27T05:11:48.938Z,3.04
2018-12-27T05:14:19.508Z,3.03
2018-12-27T05:16:50.042Z,3.00
2018-12-27T05:19:20.547Z,2.98
2018-12-27T05:21:51.154Z,2.88
2018-12-27T05:24:21.377Z,2.83
2018-12-27T05:26:51.726Z,2.81
2018-12-27T05:29:22.046Z,2.95
2018-12-27T05:31:52.698Z,2.83
2018-12-27T05:34:26.315Z,2.81
2018-12-27T05:36:55.138Z,2.86
2018-12-27T05:39:25.890Z,2.87
2018-12-27T05:41:56.343Z,2.90
2018-12-27T05:44:26.697Z,2.85
2018-12-27T05:46:57.079Z,2.75
2018-12-27T05:49:27.473Z,2.75
2018-12-27T05:51:58.002Z,2.76
2018-12-27T05:54:28.598Z,2.76
2018-12-27T05:56:58.906Z,2.68
2018-12-27T05:59:29.294Z,2.68
2018-12-27T06:01:59.574Z,2.76
2018-12-27T06:04:33.726Z,2.75
2018-12-27T06:07:02.283Z,2.74
2018-12-27T06:09:32.581Z,2.70
2018-12-27T06:12:03.167Z,2.65
2018-12-27T06:14:33.556Z,2.66
2018-12-27T06:17:03.993Z,2.67
2018-12-27T06:19:34.400Z,2.64
2018-12-27T06:22:05.112Z,2.57
2018-12-27T06:24:35.459Z,2.59
2018-12-27T06:27:06.043Z,2.52
2018-12-27T06:29:36.355Z,2.45
2018-12-27T06:32:07.035Z,2.46
2018-12-27T06:34:41.312Z,2.45
2018-12-27T06:37:09.711Z,2.47
2018-12-27T06:39:40.242Z,2.39
2018-12-27T06:42:10.635Z,2.45
2018-12-27T06:44:41.091Z,2.41
2018-12-27T06:47:11.372Z,2.37
2018-12-27T06:49:41.686Z,2.31
2018-12-27T06:52:12.188Z,2.27
2018-12-27T06:54:43.046Z,2.29
2018-12-27T06:57:13.653Z,2.31
2018-12-27T06:59:43.956Z,2.34
2018-12-27T07:02:15.087Z,2.30
2018-12-27T07:04:48.904Z,2.30
2018-12-27T07:07:17.516Z,2.24
2018-12-27T07:09:48.057Z,2.27
2018-12-27T07:12:18.332Z,2.32
2018-12-27T07:14:48.791Z,2.31
2018-12-27T07:17:19.327Z,2.30
2018-12-27T07:19:49.994Z,2.32
2018-12-27T07:22:20.605Z,2.40
2018-12-27T07:24:50.845Z,2.47
2018-12-27T07:27:21.220Z,2.54
2018-12-27T07:29:51.961Z,2.44
2018-12-27T07:32:22.241Z,2.54
2018-12-27T07:34:56.412Z,2.49
2018-12-27T07:37:24.776Z,2.51
2018-12-27T07:39:55.346Z,2.48
2018-12-27T07:42:26.127Z,2.56
2018-12-27T07:44:56.584Z,2.59
2018-12-27T07:47:27.723Z,2.58
2018-12-27T07:49:58.666Z,2.57
2018-12-27T07:52:29.670Z,2.61
2018-12-27T07:55:00.587Z,2.66
2018-12-27T07:57:31.412Z,2.71
2018-12-27T08:00:02.060Z,2.68
2018-12-27T08:02:32.361Z,2.69
2018-12-27T08:05:04.327Z,2.72
2018-12-27T08:07:34.929Z,2.76
2018-12-27T08:10:06.047Z,2.85
2018-12-27T08:12:40.082Z,2.95
2018-12-27T08:15:10.864Z,3.02
2018-12-27T08:17:41.256Z,3.04
2018-12-27T08:20:11.811Z,3.07
2018-12-27T08:22:42.376Z,3.21
2018-12-27T08:25:12.758Z,3.26
2018-12-27T08:27:43.079Z,3.17
2018-12-27T08:30:13.540Z,3.32
2018-12-27T08:32:44.177Z,3.22
2018-12-27T08:35:14.588Z,3.31
2018-12-27T08:37:46.014Z,3.34
2018-12-27T08:40:17.070Z,3.45
2018-12-27T08:42:47.605Z,3.27
2018-12-27T08:45:17.925Z,3.49
2018-12-27T08:47:48.295Z,3.45
2018-12-27T08:50:19.682Z,3.44
2018-12-27T08:52:50.075Z,3.35
2018-12-27T08:55:20.674Z,3.37
2018-12-27T08:57:51.593Z,3.38
2018-12-27T09:00:22.480Z,3.40
2018-12-27T09:02:53.155Z,3.30
2018-12-27T09:05:24.484Z,3.33
2018-12-27T09:07:54.895Z,3.39
2018-12-27T09:10:25.381Z,3.38
2018-12-27T09:12:55.779Z,3.48
2018-12-27T09:15:26.505Z,3.51
2018-12-27T09:17:56.891Z,3.58
2018-12-27T09:20:27.632Z,3.79
2018-12-27T09:22:57.993Z,3.84
2018-12-27T09:25:28.444Z,4.08
2018-12-27T09:27:58.768Z,4.24
2018-12-27T09:30:29.136Z,4.35
2018-12-27T09:32:59.493Z,4.33
2018-12-27T09:35:30.576Z,4.53
2018-12-27T09:38:00.943Z,4.80
2018-12-27T09:40:31.404Z,4.76
2018-12-27T09:43:01.716Z,4.94
2018-12-27T09:45:32.280Z,5.02
2018-12-27T09:48:02.742Z,5.10
2018-12-27T09:50:33.057Z,5.17
2018-12-27T09:53:03.480Z,5.10
2018-12-27T09:55:33.856Z,4.93
2018-12-27T09:58:04.329Z,5.44
2018-12-27T10:00:34.611Z,5.64
2018-12-27T10:03:05.050Z,5.84
2018-12-27T10:05:35.283Z,6.17
2018-12-27T10:08:05.949Z,5.87
2018-12-27T10:10:36.486Z,5.90
2018-12-27T10:13:07.049Z,5.31
2018-12-27T10:15:37.664Z,5.41
2018-12-27T10:18:08.032Z,5.30
2018-12-27T10:20:38.444Z,5.42
2018-12-27T10:23:08.830Z,5.52
2018-12-27T10:25:39.475Z,5.70
2018-12-27T10:28:10.141Z,5.97
2018-12-27T10:30:40.520Z,5.75
2018-12-27T10:33:11.101Z,5.96
2018-12-27T10:35:41.498Z,6.20
2018-12-27T10:38:11.875Z,6.08
2018-12-27T10:40:42.231Z,5.72
2018-12-27T10:43:12.751Z,5.73
2018-12-27T10:45:45.147Z,5.54
2018-12-27T10:48:16.709Z,5.84
2018-12-27T10:50:47.633Z,5.78
2018-12-27T10:53:18.206Z,5.87
2018-12-27T10:55:48.604Z,6.06
2018-12-27T10:58:19.237Z,5.63
2018-12-27T11:00:50.237Z,5.91
2018-12-27T11:03:20.705Z,6.03
2018-12-27T11:05:51.317Z,6.30
2018-12-27T11:08:22.090Z,6.59
2018-12-27T11:10:52.403Z,6.77
2018-12-27T11:13:22.855Z,6.96
2018-12-27T11:15:53.298Z,7.25
2018-12-27T11:18:23.693Z,7.30
2018-12-27T11:20:54.150Z,7.34
2018-12-27T11:23:24.445Z,7.46
2018-12-27T11:25:56.180Z,8.15
2018-12-27T11:28:26.575Z,8.42
2018-12-27T11:30:58.093Z,8.40
2018-12-27T11:33:28.513Z,7.97
2018-12-27T11:35:59.124Z,8.10
2018-12-27T11:38:29.418Z,7.94
2018-12-27T11:40:59.878Z,8.10
2018-12-27T11:43:30.295Z,7.80
2018-12-27T11:46:00.574Z,7.50
2018-12-27T11:48:31.347Z,7.55
2018-12-27T11:51:02.085Z,7.61
2018-12-27T11:53:32.506Z,7.58
2018-12-27T11:56:03.253Z,7.88
2018-12-27T11:58:34.216Z,7.59
2018-12-27T12:01:04.682Z,7.53
2018-12-27T12:03:35.221Z,7.35
2018-12-27T12:06:05.679Z,7.45
2018-12-27T12:08:36.082Z,7.63
2018-12-27T12:11:06.870Z,7.29
2018-12-27T12:13:38.691Z,7.73
2018-12-27T12:16:09.196Z,8.04
2018-12-27T12:18:39.698Z,7.98
2018-12-27T12:21:10.126Z,7.81
2018-12-27T12:23:40.672Z,8.12
2018-12-27T12:26:11.175Z,8.36
2018-12-27T12:28:41.678Z,8.41
2018-12-27T12:31:12.436Z,8.46
2018-12-27T12:33:42.916Z,8.72
2018-12-27T12:36:13.464Z,8.50
2018-12-27T12:38:43.921Z,8.15
2018-12-27T12:41:14.510Z,8.13
2018-12-27T12:43:45.126Z,8.20
2018-12-27T12:46:15.981Z,7.82
2018-12-27T12:48:47.068Z,7.98
2018-12-27T12:51:17.597Z,8.02
2018-12-27T12:53:48.497Z,7.98
2018-12-27T12:56:19.047Z,7.81
2018-12-27T12:58:49.666Z,7.74
2018-12-27T13:01:20.107Z,7.73
2018-12-27T13:03:50.601Z,7.65
2018-12-27T13:06:21.130Z,7.82
2018-12-27T13:08:51.878Z,7.75
2018-12-27T13:11:22.513Z,7.57
2018-12-27T13:13:53.045Z,7.55
2018-12-27T13:16:23.493Z,7.58
2018-12-27T13:18:54.049Z,7.29
2018-12-27T13:21:24.788Z,7.46
2018-12-27T13:23:55.417Z,7.67
2018-12-27T13:26:25.983Z,7.60
2018-12-27T13:28:56.307Z,7.55
2018-12-27T13:31:26.754Z,7.49
2018-12-27T13:33:57.244Z,7.58
2018-12-27T13:36:27.924Z,7.51
2018-12-27T13:38:58.520Z,7.55
2018-12-27T13:41:28.874Z,7.51
2018-12-27T13:43:59.383Z,7.45
2018-12-27T13:46:30.201Z,7.39
2018-12-27T13:49:01.104Z,7.38
2018-12-27T13:51:31.523Z,7.37
2018-12-27T13:54:02.287Z,7.38
2018-12-27T13:56:33.125Z,7.54
2018-12-27T13:59:03.976Z,7.42
2018-12-27T14:01:34.544Z,7.46
2018-12-27T14:04:05.031Z,7.39
2018-12-27T14:06:35.754Z,7.37
2018-12-27T14:09:08.375Z,7.31
2018-12-27T14:11:39.038Z,7.30
2018-12-27T14:14:09.626Z,7.41
2018-12-27T14:16:40.251Z,7.37
2018-12-27T14:19:10.639Z,7.28
2018-12-27T14:21:41.055Z,7.27
2018-12-27T14:24:11.371Z,7.18
2018-12-27T14:26:42.195Z,7.18
2018-12-27T14:29:12.583Z,7.02
2018-12-27T14:31:43.174Z,7.11
2018-12-27T14:34:14.000Z,7.03
2018-12-27T14:36:44.283Z,6.99
2018-12-27T14:39:15.135Z,7.05
2018-12-27T14:41:45.746Z,7.01
2018-12-27T14:44:16.014Z,6.94
2018-12-27T14:46:46.428Z,6.95
2018-12-27T14:49:16.689Z,7.07
2018-12-27T14:51:46.927Z,6.97
2018-12-27T14:54:17.272Z,6.89
2018-12-27T14:56:47.524Z,6.90
2018-12-27T14:59:18.212Z,6.95
2018-12-27T15:01:48.650Z,6.92
2018-12-27T15:04:19.445Z,6.80
2018-12-27T15:06:49.910Z,6.75
2018-12-27T15:09:20.425Z,6.75
2018-12-27T15:11:50.579Z,6.73
2018-12-27T15:14:23.056Z,6.74
2018-12-27T15:16:53.587Z,6.68
2018-12-27T15:19:23.967Z,6.69
2018-12-27T15:21:54.304Z,6.59
2018-12-27T15:24:25.073Z,6.57
2018-12-27T15:26:55.374Z,6.48
2018-12-27T15:29:25.704Z,6.41
2018-12-27T15:31:56.040Z,6.40
2018-12-27T15:34:26.343Z,6.35
2018-12-27T15:36:56.969Z,6.28
2018-12-27T15:39:27.337Z,6.22
2018-12-27T15:41:57.682Z,6.15
2018-12-27T15:44:27.991Z,6.10
2018-12-27T15:46:58.351Z,6.04
2018-12-27T15:49:29.065Z,6.00
2018-12-27T15:51:59.695Z,5.91
2018-12-27T15:54:30.026Z,5.89
2018-12-27T15:57:00.471Z,5.82
2018-12-27T15:59:30.813Z,5.77
2018-12-27T16:02:01.224Z,5.70
2018-12-27T16:04:31.901Z,5.67
2018-12-27T16:07:02.469Z,5.65
2018-12-27T16:09:33.054Z,5.61
2018-12-27T16:12:03.437Z,5.64
2018-12-27T16:14:33.755Z,5.68
2018-12-27T16:17:04.573Z,5.66
2018-12-27T16:19:35.485Z,5.66
2018-12-27T16:22:05.855Z,5.63
2018-12-27T16:24:36.366Z,5.64
2018-12-27T16:27:08.342Z,5.63
2018-12-27T16:29:39.195Z,5.61
2018-12-27T16:32:10.768Z,5.59
2018-12-27T16:34:41.517Z,5.59
2018-12-27T16:37:11.983Z,5.55
2018-12-27T16:39:42.586Z,5.50
2018-12-27T16:42:13.073Z,5.45
2018-12-27T16:44:43.436Z,5.39
2018-12-27T16:47:16.438Z,5.36
2018-12-27T16:49:47.033Z,5.32
2018-12-27T16:52:17.411Z,5.32
2018-12-27T16:54:48.455Z,5.30
2018-12-27T16:57:19.779Z,5.28
2018-12-27T16:59:50.650Z,5.27
2018-12-27T17:02:21.146Z,5.25
2018-12-27T17:04:51.456Z,5.26
2018-12-27T17:07:22.544Z,5.30
2018-12-27T17:09:52.903Z,5.28
2018-12-27T17:12:23.573Z,5.30
2018-12-27T17:14:54.024Z,5.30
2018-12-27T17:17:26.396Z,5.33
2018-12-27T17:19:57.036Z,5.36
2018-12-27T17:22:30.085Z,5.40
2018-12-27T17:25:00.601Z,5.39
2018-12-27T17:27:34.114Z,5.39
2018-12-27T17:30:07.880Z,5.39
2018-12-27T17:32:38.733Z,5.39
2018-12-27T17:35:09.480Z,5.39
2018-12-27T17:37:51.906Z,5.37
2018-12-27T17:40:22.330Z,5.34
2018-12-27T17:42:52.685Z,5.31
2018-12-27T17:45:23.012Z,5.31
2018-12-27T17:47:53.478Z,5.39
2018-12-27T17:50:24.046Z,5.38
2018-12-27T17:52:54.535Z,5.40
2018-12-27T17:55:25.225Z,5.42
2018-12-27T17:57:55.681Z,5.67
2018-12-27T18:00:26.046Z,5.74
2018-12-27T18:02:56.412Z,5.65
2018-12-27T18:05:26.888Z,5.68
2018-12-27T18:07:57.295Z,5.62
2018-12-27T18:10:28.149Z,5.64
2018-12-27T18:13:06.498Z,5.72
2018-12-27T18:15:36.997Z,5.74
2018-12-27T18:18:07.381Z,5.66
2018-12-27T18:20:38.324Z,5.66
2018-12-27T18:23:08.963Z,5.63
2018-12-27T18:25:39.680Z,5.59
2018-12-27T18:28:10.233Z,5.53
2018-12-27T18:30:40.877Z,5.48
2018-12-27T18:33:11.633Z,5.50
2018-12-27T18:35:42.807Z,5.59
2018-12-27T18:38:13.495Z,5.48
2018-12-27T18:40:47.255Z,5.44
2018-12-27T18:43:17.685Z,5.44
2018-12-27T18:45:56.282Z,5.50
2018-12-27T18:48:27.085Z,5.46
2018-12-27T18:51:00.548Z,5.44
2018-12-27T18:53:30.924Z,5.49
2018-12-27T18:56:04.641Z,5.56
2018-12-27T18:58:35.752Z,5.59
2018-12-27T19:01:28.905Z,5.56
2018-12-27T19:03:59.388Z,5.54
2018-12-27T19:06:29.910Z,5.58
2018-12-27T19:09:00.394Z,5.64
2018-12-27T19:12:24.744Z,5.68
2018-12-27T19:15:01.448Z,5.63
2018-12-27T19:17:52.540Z,5.78
2018-12-27T19:20:23.007Z,5.73
2018-12-27T19:23:24.522Z,5.71
2018-12-27T19:25:54.878Z,5.77
2018-12-27T19:28:26.635Z,5.68
2018-12-27T19:30:57.457Z,5.64
2018-12-27T19:33:31.809Z,5.60
2018-12-27T19:36:02.177Z,5.55
2018-12-27T19:38:32.410Z,5.53
2018-12-27T19:41:02.778Z,5.52
2018-12-27T19:43:33.591Z,5.54
2018-12-27T19:46:04.156Z,5.46
2018-12-27T19:48:34.558Z,5.66
2018-12-27T19:51:05.393Z,5.60
2018-12-27T19:53:36.179Z,5.59
2018-12-27T19:56:06.949Z,5.52
2018-12-27T19:58:38.180Z,5.54
2018-12-27T20:01:08.826Z,5.57
2018-12-27T20:03:39.659Z,5.46
2018-12-27T20:06:12.156Z,5.40
2018-12-27T20:08:44.031Z,5.36
2018-12-27T20:11:15.657Z,5.31
2018-12-27T20:13:46.332Z,5.30
2018-12-27T20:16:17.132Z,5.30
2018-12-27T20:18:47.596Z,5.30
2018-12-27T20:21:17.903Z,5.27
2018-12-27T20:23:48.353Z,5.23
2018-12-27T20:26:19.212Z,5.24
2018-12-27T20:28:49.728Z,5.25
2018-12-27T20:31:20.938Z,5.21
2018-12-27T20:33:52.185Z,5.23
2018-12-27T20:36:23.060Z,5.25
2018-12-27T20:38:53.698Z,5.31
2018-12-27T20:41:24.236Z,5.25
2018-12-27T20:43:55.031Z,5.28
2018-12-27T20:46:25.889Z,5.27
2018-12-27T20:48:58.028Z,5.26
2018-12-27T20:51:28.689Z,5.26
2018-12-27T20:53:59.376Z,5.30
2018-12-27T20:56:33.152Z,5.29
2018-12-27T20:59:32.653Z,5.36
2018-12-27T21:02:03.398Z,5.31
2018-12-27T21:04:34.063Z,5.31
2018-12-27T21:07:04.505Z,5.23
2018-12-27T21:09:35.360Z,5.15
2018-12-27T21:12:06.301Z,5.22
2018-12-27T21:14:36.897Z,5.19
2018-12-27T21:17:07.698Z,5.15
2018-12-27T21:19:38.504Z,5.17
2018-12-27T21:22:09.048Z,5.20
2018-12-27T21:24:39.628Z,5.19
2018-12-27T21:27:13.155Z,5.22
2018-12-27T21:29:43.747Z,5.15
2018-12-27T21:32:14.645Z,5.20
2018-12-27T21:34:45.064Z,5.15
2018-12-27T21:37:15.669Z,5.12
2018-12-27T21:39:46.220Z,5.12
2018-12-27T21:42:17.093Z,5.10
2018-12-27T21:44:47.697Z,5.01
2018-12-27T21:47:18.249Z,4.99
2018-12-27T21:49:48.869Z,4.94
2018-12-27T21:52:28.243Z,4.92
2018-12-27T21:55:13.991Z,4.95
2018-12-27T21:57:50.300Z,4.92
2018-12-27T22:00:32.288Z,4.99
2018-12-27T22:03:02.794Z,4.98
2018-12-27T22:05:33.724Z,4.95
2018-12-27T22:08:04.891Z,4.96
2018-12-27T22:10:35.493Z,4.99
2018-12-27T22:13:06.125Z,4.90
2018-12-27T22:15:36.744Z,4.91
2018-12-27T22:18:07.234Z,4.90
2018-12-27T22:20:37.813Z,4.84
2018-12-27T22:23:08.416Z,4.84
2018-12-27T22:25:39.050Z,4.81
2018-12-27T22:28:09.666Z,4.82
2018-12-27T22:30:40.207Z,4.78
2018-12-27T22:33:11.029Z,4.74
2018-12-27T22:35:41.766Z,4.68
2018-12-27T22:38:12.376Z,4.65
2018-12-27T22:40:43.128Z,4.62
2018-12-27T22:43:13.683Z,4.60
2018-12-27T22:45:44.326Z,4.60
2018-12-27T22:48:15.169Z,4.57
2018-12-27T22:50:46.024Z,4.53
2018-12-27T22:53:16.758Z,4.54
2018-12-27T22:56:06.283Z,4.52
2018-12-27T22:58:36.707Z,4.55
2018-12-27T23:01:07.843Z,4.53
2018-12-27T23:03:38.301Z,4.54
2018-12-27T23:06:08.893Z,4.58
2018-12-27T23:08:43.042Z,4.65
2018-12-27T23:11:11.311Z,4.66
2018-12-27T23:13:41.672Z,4.73
2018-12-27T23:16:12.148Z,4.67
2018-12-27T23:18:42.563Z,4.69
2018-12-27T23:21:12.982Z,4.64
2018-12-27T23:23:43.429Z,4.63
2018-12-27T23:26:13.807Z,4.67
2018-12-27T23:28:44.069Z,4.55
2018-12-27T23:31:14.752Z,4.50
2018-12-27T23:33:45.191Z,4.57
2018-12-27T23:36:15.664Z,4.51
2018-12-27T23:38:50.249Z,4.48
2018-12-27T23:41:18.008Z,4.42
2018-12-27T23:43:48.287Z,4.41
2018-12-27T23:46:18.750Z,4.46
2018-12-27T23:48:49.721Z,4.50
2018-12-27T23:51:20.463Z,4.51
2018-12-27T23:53:50.855Z,4.47
2018-12-27T23:56:21.287Z,4.42
2018-12-27T23:58:51.578Z,4.44
